createdAt,value
2018-11-06T00:00:09.955Z,9.41
2018-11-06T00:01:10.099Z,9.47
2018-11-06T00:02:10.096Z,9.45
2018-11-06T00:03:09.820Z,9.5
2018-11-06T00:04:10.074Z,9.48
2018-11-06T00:05:09.800Z,9.45
2018-11-06T00:06:10.044Z,9.39
2018-11-06T00:07:09.779Z,9.45
2018-11-06T00:08:09.768Z,9.47
2018-11-06T00:09:10.144Z,9.48
2018-11-06T00:10:09.752Z,9.44
2018-11-06T00:11:09.736Z,9.42
2018-11-06T00:12:09.717Z,9.45
2018-11-06T00:13:09.712Z,9.44
2018-11-06T00:14:09.966Z,9.42
2018-11-06T00:15:09.941Z,9.42
2018-11-06T00:16:09.936Z,9.53
2018-11-06T00:17:09.924Z,9.5
2018-11-06T00:18:09.653Z,9.45
2018-11-06T00:19:09.646Z,9.44
2018-11-06T00:20:09.883Z,9.5
2018-11-06T00:21:09.916Z,9.44
2018-11-06T00:22:09.607Z,9.45
2018-11-06T00:23:09.601Z,9.52
2018-11-06T00:24:09.837Z,9.47
2018-11-06T00:25:09.572Z,9.47
2018-11-06T00:26:09.819Z,9.48
2018-11-06T00:27:09.549Z,9.5
2018-11-06T00:28:09.542Z,9.5
2018-11-06T00:29:09.528Z,9.5
2018-11-06T00:30:09.771Z,9.52
2018-11-06T00:31:09.250Z,9.52
2018-11-06T00:32:09.493Z,9.56
2018-11-06T00:33:09.225Z,9.52
2018-11-06T00:34:09.563Z,9.55
2018-11-06T00:35:09.201Z,9.53
2018-11-06T00:36:09.507Z,9.47
2018-11-06T00:37:09.486Z,9.47
2018-11-06T00:38:09.715Z,9.52
2018-11-06T00:39:09.667Z,9.48
2018-11-06T00:40:09.400Z,9.45
2018-11-06T00:41:09.392Z,9.5
2018-11-06T00:42:09.384Z,9.47
2018-11-06T00:43:09.629Z,9.5
2018-11-06T00:44:09.614Z,9.5
2018-11-06T00:45:09.344Z,9.52
2018-11-06T00:46:09.588Z,9.52
2018-11-06T00:47:09.578Z,9.55
2018-11-06T00:48:09.565Z,9.47
2018-11-06T00:49:09.298Z,9.5
2018-11-06T00:50:09.289Z,9.5
2018-11-06T00:51:09.536Z,9.53
2018-11-06T00:52:09.524Z,9.45
2018-11-06T00:53:09.513Z,9.48
2018-11-06T00:54:09.499Z,9.5
2018-11-06T00:55:09.488Z,9.48
2018-11-06T00:56:09.479Z,9.48
2018-11-06T00:57:09.206Z,9.45
2018-11-06T00:58:09.460Z,9.41
2018-11-06T00:59:09.446Z,9.45
2018-11-06T01:00:08.914Z,9.37
2018-11-06T01:01:09.425Z,9.3
2018-11-06T01:02:09.407Z,9.34
2018-11-06T01:03:09.408Z,9.29
2018-11-06T01:04:09.398Z,9.27
2018-11-06T01:05:08.866Z,9.39
2018-11-06T01:06:09.365Z,9.37
2018-11-06T01:07:09.355Z,9.29
2018-11-06T01:08:08.829Z,9.23
2018-11-06T01:09:09.070Z,9.27
2018-11-06T01:10:09.318Z,9.29
2018-11-06T01:11:09.340Z,9.34
2018-11-06T01:12:09.036Z,9.23
2018-11-06T01:13:09.284Z,9.3
2018-11-06T01:14:09.274Z,9.26
2018-11-06T01:15:09.262Z,9.26
2018-11-06T01:16:09.245Z,9.3
2018-11-06T01:17:08.979Z,9.19
2018-11-06T01:18:08.705Z,9.2
2018-11-06T01:19:08.950Z,9.26
2018-11-06T01:20:08.682Z,9.26
2018-11-06T01:21:08.671Z,9.23
2018-11-06T01:22:09.175Z,9.23
2018-11-06T01:23:08.907Z,9.19
2018-11-06T01:24:09.156Z,9.21
2018-11-06T01:25:08.880Z,9.16
2018-11-06T01:26:08.983Z,9.19
2018-11-06T01:27:08.601Z,9.2
2018-11-06T01:28:09.104Z,9.19
2018-11-06T01:29:08.579Z,9.21
2018-11-06T01:30:08.830Z,9.17
2018-11-06T01:31:08.819Z,9.21
2018-11-06T01:32:08.859Z,9.17
2018-11-06T01:33:09.055Z,9.23
2018-11-06T01:34:08.787Z,9.23
2018-11-06T01:35:09.020Z,9.24
2018-11-06T01:36:08.943Z,9.21
2018-11-06T01:37:08.927Z,9.2
2018-11-06T01:38:08.818Z,9.14
2018-11-06T01:39:09.268Z,9.2
2018-11-06T01:40:09.178Z,9.24
2018-11-06T01:41:09.245Z,9.23
2018-11-06T01:42:09.173Z,9.21
2018-11-06T01:43:08.788Z,9.24
2018-11-06T01:44:08.880Z,9.17
2018-11-06T01:45:08.805Z,9.2
2018-11-06T01:46:08.836Z,9.19
2018-11-06T01:47:09.143Z,9.2
2018-11-06T01:48:08.517Z,9.17
2018-11-06T01:49:09.106Z,9.21
2018-11-06T01:50:09.094Z,9.19
2018-11-06T01:51:09.034Z,9.17
2018-11-06T01:52:08.446Z,9.21
2018-11-06T01:53:08.302Z,9.17
2018-11-06T01:54:08.811Z,9.19
2018-11-06T01:55:09.107Z,9.17
2018-11-06T01:56:08.791Z,9.12
2018-11-06T01:57:08.768Z,9.17
2018-11-06T01:58:08.245Z,9.19
2018-11-06T01:59:08.489Z,9.16
2018-11-06T02:00:08.734Z,9.23
2018-11-06T02:01:08.730Z,9.19
2018-11-06T02:02:08.713Z,9.17
2018-11-06T02:03:08.614Z,9.21
2018-11-06T02:04:08.689Z,9.19
2018-11-06T02:05:08.420Z,9.14
2018-11-06T02:06:09.152Z,9.12
2018-11-06T02:07:09.330Z,9.17
2018-11-06T02:08:08.687Z,9.24
2018-11-06T02:09:08.116Z,9.19
2018-11-06T02:10:08.697Z,9.19
2018-11-06T02:11:08.351Z,9.21
2018-11-06T02:12:08.338Z,9.16
2018-11-06T02:13:08.073Z,9.19
2018-11-06T02:14:08.314Z,9.19
2018-11-06T02:15:08.306Z,9.2
2018-11-06T02:16:08.546Z,9.19
2018-11-06T02:17:08.024Z,9.2
2018-11-06T02:18:08.271Z,9.21
2018-11-06T02:19:08.520Z,9.19
2018-11-06T02:20:08.503Z,9.23
2018-11-06T02:21:08.491Z,9.23
2018-11-06T02:22:08.222Z,9.14
2018-11-06T02:23:08.464Z,9.05
2018-11-06T02:24:08.455Z,9.05
2018-11-06T02:25:07.931Z,9.14
2018-11-06T02:26:08.439Z,9.05
2018-11-06T02:27:08.426Z,9.05
2018-11-06T02:28:08.151Z,9.11
2018-11-06T02:29:08.140Z,9.16
2018-11-06T02:30:08.427Z,9.05
2018-11-06T02:31:08.400Z,9
2018-11-06T02:32:08.471Z,9.08
2018-11-06T02:33:07.841Z,9.08
2018-11-06T02:34:08.086Z,9.09
2018-11-06T02:35:08.087Z,9.11
2018-11-06T02:36:08.325Z,9.08
2018-11-06T02:37:08.310Z,9.05
2018-11-06T02:38:08.039Z,9.05
2018-11-06T02:39:08.281Z,9.04
2018-11-06T02:40:08.015Z,9.05
2018-11-06T02:41:08.275Z,9.14
2018-11-06T02:42:08.251Z,9.09
2018-11-06T02:43:08.238Z,8.98
2018-11-06T02:44:08.226Z,9.01
2018-11-06T02:45:07.960Z,9.04
2018-11-06T02:46:07.950Z,8.97
2018-11-06T02:47:07.931Z,9.05
2018-11-06T02:48:08.179Z,9.04
2018-11-06T02:49:07.912Z,9.11
2018-11-06T02:50:07.898Z,9.04
2018-11-06T02:51:08.141Z,9
2018-11-06T02:52:07.874Z,9.03
2018-11-06T02:53:07.865Z,9.03
2018-11-06T02:54:08.112Z,9.01
2018-11-06T02:55:08.097Z,9.09
2018-11-06T02:56:07.847Z,8.98
2018-11-06T02:57:07.818Z,9.04
2018-11-06T02:58:07.554Z,9.05
2018-11-06T02:59:07.793Z,9.08
2018-11-06T03:00:07.783Z,8.98
2018-11-06T03:01:07.770Z,9
2018-11-06T03:02:08.021Z,9
2018-11-06T03:03:07.748Z,9.08
2018-11-06T03:04:08.007Z,9
2018-11-06T03:05:07.723Z,8.98
2018-11-06T03:06:07.713Z,9.11
2018-11-06T03:07:07.963Z,8.98
2018-11-06T03:08:07.952Z,9.03
2018-11-06T03:09:07.933Z,9.01
2018-11-06T03:10:07.421Z,9.04
2018-11-06T03:11:07.660Z,9
2018-11-06T03:12:07.909Z,9.01
2018-11-06T03:13:07.889Z,9
2018-11-06T03:14:07.625Z,9.03
2018-11-06T03:15:07.606Z,9.03
2018-11-06T03:16:07.601Z,8.95
2018-11-06T03:17:08.241Z,9.04
2018-11-06T03:18:07.835Z,9
2018-11-06T03:19:07.823Z,9.03
2018-11-06T03:20:07.560Z,9.05
2018-11-06T03:21:07.546Z,9.03
2018-11-06T03:22:07.789Z,8.98
2018-11-06T03:23:07.772Z,9.05
2018-11-06T03:24:07.501Z,9
2018-11-06T03:25:07.235Z,9.01
2018-11-06T03:26:07.477Z,9.08
2018-11-06T03:27:07.348Z,9.03
2018-11-06T03:28:07.711Z,9.04
2018-11-06T03:29:07.719Z,9.08
2018-11-06T03:30:07.688Z,9.11
2018-11-06T03:31:07.684Z,8.98
2018-11-06T03:32:07.413Z,9.03
2018-11-06T03:33:07.396Z,9.09
2018-11-06T03:34:07.386Z,9.04
2018-11-06T03:35:07.633Z,8.95
2018-11-06T03:36:07.370Z,8.97
2018-11-06T03:37:07.610Z,8.95
2018-11-06T03:38:07.593Z,9.01
2018-11-06T03:39:07.073Z,9.03
2018-11-06T03:40:07.317Z,9.11
2018-11-06T03:41:07.046Z,9.01
2018-11-06T03:42:07.294Z,9.09
2018-11-06T03:43:07.296Z,8.97
2018-11-06T03:44:07.265Z,9
2018-11-06T03:45:07.531Z,9
2018-11-06T03:46:07.501Z,9
2018-11-06T03:47:07.494Z,8.94
2018-11-06T03:48:06.966Z,9
2018-11-06T03:49:07.215Z,9.03
2018-11-06T03:50:07.228Z,8.95
2018-11-06T03:51:07.191Z,9
2018-11-06T03:52:07.174Z,8.92
2018-11-06T03:53:07.165Z,8.98
2018-11-06T03:54:07.158Z,8.98
2018-11-06T03:55:07.149Z,9.01
2018-11-06T03:56:07.387Z,8.98
2018-11-06T03:57:07.114Z,9.04
2018-11-06T03:58:07.111Z,9
2018-11-06T03:59:07.354Z,8.97
2018-11-06T04:00:07.084Z,9.01
2018-11-06T04:01:07.331Z,8.95
2018-11-06T04:02:07.056Z,9.08
2018-11-06T04:03:07.046Z,9
2018-11-06T04:04:07.288Z,9
2018-11-06T04:05:07.292Z,9.01
2018-11-06T04:06:07.014Z,9
2018-11-06T04:07:06.996Z,9.03
2018-11-06T04:08:07.246Z,9.03
2018-11-06T04:09:06.718Z,9
2018-11-06T04:10:06.969Z,8.95
2018-11-06T04:11:07.210Z,9.01
2018-11-06T04:12:07.194Z,9
2018-11-06T04:13:07.188Z,9.01
2018-11-06T04:14:06.684Z,8.94
2018-11-06T04:15:06.654Z,9
2018-11-06T04:16:06.896Z,9
2018-11-06T04:17:06.624Z,8.98
2018-11-06T04:18:06.871Z,8.97
2018-11-06T04:19:07.126Z,9.03
2018-11-06T04:20:07.103Z,9.01
2018-11-06T04:21:06.848Z,8.89
2018-11-06T04:22:06.823Z,8.95
2018-11-06T04:23:06.556Z,8.94
2018-11-06T04:24:06.801Z,8.97
2018-11-06T04:25:07.046Z,8.95
2018-11-06T04:26:06.517Z,8.97
2018-11-06T04:27:06.767Z,8.82
2018-11-06T04:28:06.757Z,8.95
2018-11-06T04:29:06.743Z,8.85
2018-11-06T04:30:06.994Z,8.92
2018-11-06T04:31:06.722Z,8.83
2018-11-06T04:32:06.977Z,8.87
2018-11-06T04:33:06.694Z,8.85
2018-11-06T04:34:06.684Z,8.83
2018-11-06T04:35:06.931Z,8.86
2018-11-06T04:36:06.419Z,8.87
2018-11-06T04:37:06.903Z,8.83
2018-11-06T04:38:06.634Z,8.86
2018-11-06T04:39:06.880Z,8.85
2018-11-06T04:40:06.628Z,8.77
2018-11-06T04:41:06.597Z,8.87
2018-11-06T04:42:06.589Z,8.72
2018-11-06T04:43:06.835Z,8.74
2018-11-06T04:44:06.564Z,8.76
2018-11-06T04:45:06.559Z,8.77
2018-11-06T04:46:06.802Z,8.69
2018-11-06T04:47:06.527Z,8.71
2018-11-06T04:48:06.515Z,8.74
2018-11-06T04:49:06.249Z,8.69
2018-11-06T04:50:06.502Z,8.71
2018-11-06T04:51:06.483Z,8.67
2018-11-06T04:52:06.468Z,8.67
2018-11-06T04:53:06.199Z,8.72
2018-11-06T04:54:06.445Z,8.8
2018-11-06T04:55:06.693Z,8.71
2018-11-06T04:56:06.678Z,8.74
2018-11-06T04:57:06.669Z,8.69
2018-11-06T04:58:06.400Z,8.72
2018-11-06T04:59:06.382Z,8.72
2018-11-06T05:00:06.118Z,8.61
2018-11-06T05:01:06.104Z,8.64
2018-11-06T05:02:06.121Z,8.57
2018-11-06T05:03:06.594Z,8.67
2018-11-06T05:04:06.582Z,8.67
2018-11-06T05:05:06.575Z,8.68
2018-11-06T05:06:06.301Z,8.65
2018-11-06T05:07:06.032Z,8.64
2018-11-06T05:08:06.294Z,8.67
2018-11-06T05:09:06.265Z,8.64
2018-11-06T05:10:06.261Z,8.62
2018-11-06T05:11:06.243Z,8.6
2018-11-06T05:12:06.235Z,8.57
2018-11-06T05:13:06.220Z,8.58
2018-11-06T05:14:06.002Z,8.6
2018-11-06T05:15:06.469Z,8.57
2018-11-06T05:16:06.440Z,8.53
2018-11-06T05:17:06.168Z,8.5
2018-11-06T05:18:05.900Z,8.52
2018-11-06T05:19:06.403Z,8.54
2018-11-06T05:20:06.393Z,8.47
2018-11-06T05:21:06.381Z,8.58
2018-11-06T05:22:06.107Z,8.61
2018-11-06T05:23:05.840Z,8.44
2018-11-06T05:24:06.351Z,8.6
2018-11-06T05:25:05.816Z,8.53
2018-11-06T05:26:06.083Z,8.58
2018-11-06T05:27:06.325Z,8.58
2018-11-06T05:28:06.293Z,8.52
2018-11-06T05:29:06.031Z,8.54
2018-11-06T05:30:05.756Z,8.54
2018-11-06T05:31:06.004Z,8.49
2018-11-06T05:32:05.733Z,8.47
2018-11-06T05:33:06.618Z,8.53
2018-11-06T05:34:05.965Z,8.6
2018-11-06T05:35:06.155Z,8.57
2018-11-06T05:36:06.204Z,8.53
2018-11-06T05:37:05.928Z,8.58
2018-11-06T05:38:05.915Z,8.46
2018-11-06T05:39:06.167Z,8.5
2018-11-06T05:40:05.894Z,8.5
2018-11-06T05:41:06.155Z,8.5
2018-11-06T05:42:06.123Z,8.49
2018-11-06T05:43:05.855Z,8.46
2018-11-06T05:44:05.663Z,8.4
2018-11-06T05:45:05.839Z,8.4
2018-11-06T05:46:05.821Z,8.43
2018-11-06T05:47:06.068Z,8.53
2018-11-06T05:48:06.053Z,8.36
2018-11-06T05:49:05.783Z,8.36
2018-11-06T05:50:06.031Z,8.32
2018-11-06T05:51:06.018Z,8.42
2018-11-06T05:52:05.746Z,8.34
2018-11-06T05:53:05.779Z,8.35
2018-11-06T05:54:05.985Z,8.39
2018-11-06T05:55:05.970Z,8.36
2018-11-06T05:56:05.954Z,8.34
2018-11-06T05:57:05.944Z,8.34
2018-11-06T05:58:05.674Z,8.39
2018-11-06T05:59:05.921Z,8.32
2018-11-06T06:00:05.918Z,8.36
2018-11-06T06:01:05.900Z,8.35
2018-11-06T06:02:05.882Z,8.36
2018-11-06T06:03:05.876Z,8.34
2018-11-06T06:04:05.346Z,8.21
2018-11-06T06:05:05.333Z,8.39
2018-11-06T06:06:05.580Z,8.36
2018-11-06T06:07:05.309Z,8.39
2018-11-06T06:08:05.550Z,8.39
2018-11-06T06:09:05.541Z,8.36
2018-11-06T06:10:05.526Z,8.36
2018-11-06T06:11:05.651Z,8.32
2018-11-06T06:12:05.760Z,8.34
2018-11-06T06:13:05.794Z,8.39
2018-11-06T06:14:05.304Z,8.36
2018-11-06T06:15:05.468Z,8.36
2018-11-06T06:16:05.460Z,8.28
2018-11-06T06:17:05.750Z,8.43
2018-11-06T06:18:05.690Z,8.42
2018-11-06T06:19:05.421Z,8.46
2018-11-06T06:20:05.150Z,8.39
2018-11-06T06:21:05.392Z,8.42
2018-11-06T06:22:05.383Z,8.42
2018-11-06T06:23:05.113Z,8.43
2018-11-06T06:24:05.615Z,8.44
2018-11-06T06:25:05.346Z,8.4
2018-11-06T06:26:05.336Z,8.39
2018-11-06T06:27:05.064Z,8.39
2018-11-06T06:28:05.568Z,8.39
2018-11-06T06:29:05.298Z,8.39
2018-11-06T06:30:05.547Z,8.44
2018-11-06T06:31:05.529Z,8.46
2018-11-06T06:32:05.002Z,8.46
2018-11-06T06:33:05.511Z,8.53
2018-11-06T06:34:05.238Z,8.5
2018-11-06T06:35:05.418Z,8.52
2018-11-06T06:36:05.469Z,8.52
2018-11-06T06:37:05.201Z,8.58
2018-11-06T06:38:05.187Z,8.47
2018-11-06T06:39:05.429Z,8.52
2018-11-06T06:40:05.436Z,8.44
2018-11-06T06:41:05.838Z,8.44
2018-11-06T06:42:05.394Z,8.36
2018-11-06T06:43:05.128Z,8.47
2018-11-06T06:44:04.857Z,8.5
2018-11-06T06:45:05.105Z,8.44
2018-11-06T06:46:05.392Z,8.44
2018-11-06T06:47:05.081Z,8.46
2018-11-06T06:48:04.809Z,8.49
2018-11-06T06:49:05.310Z,8.46
2018-11-06T06:50:05.300Z,8.53
2018-11-06T06:51:05.283Z,8.61
2018-11-06T06:52:04.757Z,8.6
2018-11-06T06:53:05.003Z,8.6
2018-11-06T06:54:05.258Z,8.57
2018-11-06T06:55:05.644Z,8.52
2018-11-06T06:56:05.227Z,8.61
2018-11-06T06:57:05.211Z,8.61
2018-11-06T06:58:04.941Z,8.67
2018-11-06T06:59:04.932Z,8.64
2018-11-06T07:00:05.176Z,8.62
2018-11-06T07:01:04.913Z,8.62
2018-11-06T07:02:04.898Z,8.61
2018-11-06T07:03:05.154Z,8.67
2018-11-06T07:04:04.874Z,8.67
2018-11-06T07:05:04.601Z,8.71
2018-11-06T07:06:04.591Z,8.68
2018-11-06T07:07:04.576Z,8.68
2018-11-06T07:08:05.114Z,8.61
2018-11-06T07:09:05.064Z,8.62
2018-11-06T07:10:04.807Z,8.74
2018-11-06T07:11:05.042Z,8.72
2018-11-06T07:12:04.774Z,8.72
2018-11-06T07:13:05.121Z,8.71
2018-11-06T07:14:04.750Z,8.83
2018-11-06T07:15:04.479Z,8.83
2018-11-06T07:16:04.728Z,8.85
2018-11-06T07:17:04.713Z,8.86
2018-11-06T07:18:04.706Z,8.8
2018-11-06T07:19:04.695Z,8.82
2018-11-06T07:20:04.953Z,8.89
2018-11-06T07:21:04.668Z,8.85
2018-11-06T07:22:04.909Z,8.82
2018-11-06T07:23:04.642Z,8.97
2018-11-06T07:24:04.377Z,9.01
2018-11-06T07:25:04.620Z,8.89
2018-11-06T07:26:04.348Z,8.86
2018-11-06T07:27:04.857Z,8.87
2018-11-06T07:28:04.842Z,9
2018-11-06T07:29:04.577Z,9.01
2018-11-06T07:30:04.307Z,9.01
2018-11-06T07:31:04.810Z,8.97
2018-11-06T07:32:04.800Z,9.05
2018-11-06T07:33:04.527Z,9.03
2018-11-06T07:34:04.521Z,9.08
2018-11-06T07:35:04.498Z,9.01
2018-11-06T07:36:04.239Z,9.08
2018-11-06T07:37:04.228Z,9.21
2018-11-06T07:38:04.210Z,9.2
2018-11-06T07:39:04.726Z,9.17
2018-11-06T07:40:04.713Z,9.21
2018-11-06T07:41:04.776Z,9.2
2018-11-06T07:42:04.439Z,9.17
2018-11-06T07:43:04.411Z,9.32
2018-11-06T07:44:04.393Z,9.27
2018-11-06T07:45:04.392Z,9.38
2018-11-06T07:46:04.376Z,9.29
2018-11-06T07:47:04.363Z,9.26
2018-11-06T07:48:04.608Z,9.32
2018-11-06T07:49:04.339Z,9.47
2018-11-06T07:50:04.510Z,9.52
2018-11-06T07:51:04.321Z,9.52
2018-11-06T07:52:04.318Z,9.52
2018-11-06T07:53:04.296Z,9.5
2018-11-06T07:54:04.281Z,9.45
2018-11-06T07:55:04.531Z,9.5
2018-11-06T07:56:04.364Z,9.52
2018-11-06T07:57:04.248Z,9.47
2018-11-06T07:58:04.237Z,9.62
2018-11-06T07:59:03.968Z,9.6
2018-11-06T08:00:04.475Z,9.6
2018-11-06T08:01:04.202Z,9.72
2018-11-06T08:02:04.189Z,9.66
2018-11-06T08:03:04.180Z,9.71
2018-11-06T08:04:04.557Z,9.75
2018-11-06T08:05:04.156Z,9.88
2018-11-06T08:06:04.170Z,9.82
2018-11-06T08:07:04.389Z,9.82
2018-11-06T08:08:04.121Z,9.84
2018-11-06T08:09:04.369Z,9.9
2018-11-06T08:10:03.842Z,9.85
2018-11-06T08:11:04.089Z,9.89
2018-11-06T08:12:04.091Z,9.85
2018-11-06T08:13:04.320Z,9.81
2018-11-06T08:14:04.056Z,9.88
2018-11-06T08:15:03.902Z,9.92
2018-11-06T08:16:04.040Z,9.9
2018-11-06T08:17:04.279Z,9.77
2018-11-06T08:18:04.136Z,9.75
2018-11-06T08:19:03.745Z,9.96
2018-11-06T08:20:03.992Z,9.92
2018-11-06T08:21:04.259Z,9.89
2018-11-06T08:22:04.227Z,9.96
2018-11-06T08:23:03.706Z,9.92
2018-11-06T08:24:04.446Z,9.99
2018-11-06T08:25:03.683Z,10.02
2018-11-06T08:26:03.924Z,10.15
2018-11-06T08:27:03.914Z,10.1
2018-11-06T08:28:03.907Z,10.13
2018-11-06T08:29:04.149Z,10.21
2018-11-06T08:30:04.137Z,10.25
2018-11-06T08:31:05.504Z,10.26
2018-11-06T08:32:06.125Z,10.28
2018-11-06T08:33:03.851Z,10.32
2018-11-06T08:34:04.090Z,10.28
2018-11-06T08:35:04.000Z,10.33
2018-11-06T08:36:04.074Z,10.33
2018-11-06T08:37:04.014Z,10.46
2018-11-06T08:38:03.792Z,10.35
2018-11-06T08:39:04.044Z,10.41
2018-11-06T08:40:04.028Z,10.46
2018-11-06T08:41:04.016Z,10.55
2018-11-06T08:42:03.756Z,10.55
2018-11-06T08:43:03.998Z,10.55
2018-11-06T08:44:03.735Z,10.59
2018-11-06T08:45:03.987Z,10.58
2018-11-06T08:46:03.779Z,10.75
2018-11-06T08:47:03.700Z,10.7
2018-11-06T08:48:04.248Z,10.63
2018-11-06T08:49:03.420Z,10.76
2018-11-06T08:50:03.668Z,10.76
2018-11-06T08:51:03.656Z,10.87
2018-11-06T08:52:03.646Z,10.91
2018-11-06T08:53:03.639Z,10.92
2018-11-06T08:54:03.883Z,10.87
2018-11-06T08:55:03.615Z,10.94
2018-11-06T08:56:03.870Z,11.06
2018-11-06T08:57:03.598Z,11.13
2018-11-06T08:58:03.588Z,11.12
2018-11-06T08:59:03.316Z,11.15
2018-11-06T09:00:03.562Z,11.27
2018-11-06T09:01:03.555Z,11.3
2018-11-06T09:02:03.799Z,11.33
2018-11-06T09:03:03.533Z,11.35
2018-11-06T09:04:03.782Z,11.35
2018-11-06T09:05:03.256Z,11.41
2018-11-06T09:06:03.763Z,11.46
2018-11-06T09:07:03.500Z,11.46
2018-11-06T09:08:03.745Z,11.56
2018-11-06T09:09:03.742Z,11.53
2018-11-06T09:10:03.723Z,11.63
2018-11-06T09:11:03.455Z,11.61
2018-11-06T09:12:03.460Z,11.57
2018-11-06T09:13:03.438Z,11.66
2018-11-06T09:14:03.432Z,11.68
2018-11-06T09:15:03.419Z,11.67
2018-11-06T09:16:03.660Z,11.78
2018-11-06T09:17:03.582Z,11.76
2018-11-06T09:18:03.130Z,11.97
2018-11-06T09:19:03.376Z,11.97
2018-11-06T09:20:03.372Z,12.08
2018-11-06T09:21:03.362Z,12.16
2018-11-06T09:22:03.091Z,12.11
2018-11-06T09:23:03.346Z,12.22
2018-11-06T09:24:03.588Z,12.16
2018-11-06T09:25:03.324Z,12.2
2018-11-06T09:26:03.312Z,12.28
2018-11-06T09:27:03.298Z,12.36
2018-11-06T09:28:03.554Z,12.36
2018-11-06T09:29:03.537Z,12.31
2018-11-06T09:30:03.015Z,12.33
2018-11-06T09:31:03.493Z,12.25
2018-11-06T09:32:02.998Z,12.41
2018-11-06T09:33:03.243Z,12.41
2018-11-06T09:34:03.508Z,12.41
2018-11-06T09:35:03.321Z,12.44
2018-11-06T09:36:03.484Z,12.45
2018-11-06T09:56:11.298Z,12.88
2018-11-06T09:57:11.811Z,12.95
2018-11-06T09:58:11.794Z,12.94
2018-11-06T09:59:11.789Z,12.99
2018-11-06T10:00:11.971Z,13.06
2018-11-06T10:01:11.512Z,13.13
2018-11-06T10:02:11.772Z,13.14
2018-11-06T10:03:11.498Z,13.24
2018-11-06T10:04:11.744Z,13.2
2018-11-06T10:05:11.737Z,13.32
2018-11-06T10:06:11.724Z,13.32
2018-11-06T10:07:13.017Z,13.37
2018-11-06T10:08:11.449Z,13.48
2018-11-06T10:09:11.827Z,13.48
2018-11-06T10:10:11.182Z,13.47
2018-11-06T10:11:11.690Z,13.5
2018-11-06T10:12:11.681Z,13.63
2018-11-06T10:13:11.667Z,13.66
2018-11-06T10:14:11.658Z,13.87
2018-11-06T10:15:11.655Z,13.88
2018-11-06T10:16:11.389Z,13.99
2018-11-06T10:17:11.634Z,14.08
2018-11-06T10:18:11.635Z,14.23
2018-11-06T10:19:11.623Z,14.2
2018-11-06T10:20:11.613Z,14.3
2018-11-06T10:21:11.840Z,14.33
2018-11-06T10:22:11.612Z,14.45
2018-11-06T10:23:11.334Z,14.52
2018-11-06T10:24:11.597Z,14.48
2018-11-06T10:25:11.574Z,14.46
2018-11-06T10:26:11.566Z,14.6
2018-11-06T10:27:11.560Z,14.49
2018-11-06T10:28:11.294Z,14.59
2018-11-06T10:29:11.551Z,14.66
2018-11-06T10:30:11.278Z,14.67
2018-11-06T10:31:11.274Z,14.69
2018-11-06T10:32:11.263Z,14.69
2018-11-06T10:33:11.255Z,14.82
2018-11-06T10:34:10.996Z,14.8
2018-11-06T10:35:11.498Z,14.86
2018-11-06T10:36:11.492Z,14.89
2018-11-06T10:37:11.488Z,14.87
2018-11-06T10:38:11.393Z,15.02
2018-11-06T10:39:10.958Z,14.98
2018-11-06T10:40:11.465Z,15.02
2018-11-06T10:41:11.460Z,15.01
2018-11-06T10:42:10.947Z,15.07
2018-11-06T10:43:11.439Z,15.08
2018-11-06T10:44:11.177Z,15.13
2018-11-06T10:45:11.435Z,15.18
2018-11-06T10:46:11.162Z,15.2
2018-11-06T10:47:11.415Z,15.19
2018-11-06T10:48:11.410Z,15.22
2018-11-06T10:49:11.151Z,15.3
2018-11-06T10:50:11.136Z,15.3
2018-11-06T10:51:11.137Z,15.37
2018-11-06T10:52:11.377Z,15.33
2018-11-06T10:53:11.134Z,15.31
2018-11-06T10:54:11.108Z,15.41
2018-11-06T10:55:11.410Z,15.38
2018-11-06T10:56:10.836Z,15.49
2018-11-06T10:57:11.089Z,15.53
2018-11-06T10:58:11.668Z,15.63
2018-11-06T10:59:10.820Z,15.63
2018-11-06T11:00:11.330Z,15.6
2018-11-06T11:01:11.064Z,15.74
2018-11-06T11:02:11.315Z,15.78
2018-11-06T11:03:11.310Z,15.8
2018-11-06T11:04:10.837Z,15.75
2018-11-06T11:05:11.039Z,15.78
2018-11-06T11:06:11.292Z,15.84
2018-11-06T11:07:11.297Z,15.89
2018-11-06T11:08:11.275Z,15.88
2018-11-06T11:09:11.020Z,15.83
2018-11-06T11:10:11.262Z,15.86
2018-11-06T11:11:11.257Z,15.98
2018-11-06T11:12:10.996Z,15.98
2018-11-06T11:13:11.274Z,16.06
2018-11-06T11:14:10.986Z,16.1
2018-11-06T11:15:10.719Z,16.04
2018-11-06T11:16:11.227Z,16.14
2018-11-06T11:17:10.703Z,16.07
2018-11-06T11:18:11.212Z,16.07
2018-11-06T11:19:11.209Z,16.07
2018-11-06T11:20:11.418Z,16.13
2018-11-06T11:21:11.193Z,16.11
2018-11-06T11:22:10.931Z,16.14
2018-11-06T11:23:10.929Z,16.14
2018-11-06T11:24:11.178Z,16.07
2018-11-06T11:25:10.658Z,16.07
2018-11-06T11:26:10.650Z,16.16
2018-11-06T11:27:10.643Z,16.13
2018-11-06T11:28:10.904Z,16.18
2018-11-06T11:29:10.887Z,16.11
2018-11-06T11:30:11.139Z,16.13
2018-11-06T11:31:10.882Z,16.11
2018-11-06T11:32:10.869Z,16.14
2018-11-06T11:33:11.156Z,16.18
2018-11-06T11:34:10.871Z,16.18
2018-11-06T11:35:11.127Z,16.18
2018-11-06T11:36:10.848Z,16.27
2018-11-06T11:37:11.112Z,16.27
2018-11-06T11:38:11.110Z,16.27
2018-11-06T11:39:10.832Z,16.26
2018-11-06T11:40:10.822Z,16.26
2018-11-06T11:41:10.817Z,16.34
2018-11-06T11:42:11.068Z,16.3
2018-11-06T11:43:10.806Z,16.26
2018-11-06T11:44:10.795Z,16.26
2018-11-06T11:45:11.055Z,16.25
2018-11-06T11:46:11.060Z,16.25
2018-11-06T11:47:11.037Z,16.18
2018-11-06T11:48:11.032Z,16.14
2018-11-06T11:49:10.773Z,16.21
2018-11-06T11:50:10.762Z,16.22
2018-11-06T11:51:10.759Z,16.21
2018-11-06T11:52:10.749Z,16.18
2018-11-06T11:53:10.750Z,16.22
2018-11-06T11:54:11.003Z,16.25
2018-11-06T11:55:10.734Z,16.13
2018-11-06T11:56:10.735Z,16.25
2018-11-06T11:57:10.721Z,16.18
2018-11-06T11:58:10.718Z,16.17
2018-11-06T11:59:10.983Z,16.21
2018-11-06T12:00:11.431Z,16.18
2018-11-06T12:01:10.969Z,16.22
2018-11-06T12:02:10.865Z,16.18
2018-11-06T12:03:10.686Z,16.14
2018-11-06T12:04:10.428Z,16.13
2018-11-06T12:05:10.681Z,16.16
2018-11-06T12:06:10.670Z,16.11
2018-11-06T12:07:10.668Z,16.08
2018-11-06T12:08:10.924Z,16.21
2018-11-06T12:09:10.658Z,16.13
2018-11-06T12:10:10.391Z,16.16
2018-11-06T12:11:10.643Z,16.02
2018-11-06T12:12:10.891Z,16.04
2018-11-06T12:13:10.634Z,16.1
2018-11-06T12:14:10.627Z,16.07
2018-11-06T12:15:10.885Z,16.02
2018-11-06T12:16:10.615Z,16
2018-11-06T12:17:10.962Z,16
2018-11-06T12:18:10.673Z,16.02
2018-11-06T12:19:10.858Z,16.04
2018-11-06T12:20:10.852Z,15.99
2018-11-06T12:21:10.592Z,15.95
2018-11-06T12:22:10.320Z,15.98
2018-11-06T12:23:10.831Z,16
2018-11-06T12:24:10.978Z,15.93
2018-11-06T12:25:11.990Z,15.96
2018-11-06T12:26:10.829Z,16.04
2018-11-06T12:27:10.813Z,16.02
2018-11-06T12:28:10.548Z,16
2018-11-06T12:29:10.284Z,15.99
2018-11-06T12:30:10.795Z,15.96
2018-11-06T12:31:10.525Z,15.96
2018-11-06T12:32:10.524Z,16.02
2018-11-06T12:33:10.778Z,15.99
2018-11-06T12:34:10.513Z,15.96
2018-11-06T12:35:10.255Z,15.96
2018-11-06T12:36:10.500Z,15.88
2018-11-06T12:37:10.684Z,15.99
2018-11-06T12:38:10.486Z,15.95
2018-11-06T12:39:10.481Z,15.95
2018-11-06T12:40:10.729Z,15.89
2018-11-06T12:41:10.728Z,15.88
2018-11-06T12:42:10.208Z,15.91
2018-11-06T12:43:11.321Z,15.81
2018-11-06T12:44:10.733Z,15.8
2018-11-06T12:45:10.446Z,15.93
2018-11-06T12:46:10.698Z,15.71
2018-11-06T12:47:10.707Z,15.78
2018-11-06T12:48:10.690Z,15.74
2018-11-06T12:49:10.426Z,15.75
2018-11-06T12:50:10.892Z,15.68
2018-11-06T12:51:10.680Z,15.67
2018-11-06T12:52:10.417Z,15.56
2018-11-06T12:53:10.667Z,15.63
2018-11-06T12:54:10.652Z,15.59
2018-11-06T12:55:10.653Z,15.67
2018-11-06T12:56:10.793Z,15.58
2018-11-06T12:57:10.381Z,15.56
2018-11-06T12:58:10.628Z,15.55
2018-11-06T12:59:10.375Z,15.63
2018-11-06T13:00:10.369Z,15.6
2018-11-06T13:01:10.615Z,15.63
2018-11-06T13:02:10.346Z,15.52
2018-11-06T13:03:10.663Z,15.53
2018-11-06T13:04:10.605Z,15.55
2018-11-06T13:05:10.330Z,15.58
2018-11-06T13:06:10.582Z,15.62
2018-11-06T13:07:10.580Z,15.65
2018-11-06T13:08:10.589Z,15.7
2018-11-06T13:09:10.565Z,15.6
2018-11-06T13:10:10.470Z,15.63
2018-11-06T13:11:10.553Z,15.62
2018-11-06T13:12:10.548Z,15.62
2018-11-06T13:13:10.539Z,15.59
2018-11-06T13:14:10.531Z,15.45
2018-11-06T13:15:10.534Z,15.59
2018-11-06T13:16:10.866Z,15.56
2018-11-06T13:17:10.883Z,15.59
2018-11-06T13:18:10.523Z,15.49
2018-11-06T13:19:10.583Z,15.44
2018-11-06T13:20:10.499Z,15.33
2018-11-06T13:21:10.236Z,15.37
2018-11-06T13:22:10.230Z,15.31
2018-11-06T13:23:10.482Z,15.16
2018-11-06T13:24:10.219Z,15.1
2018-11-06T13:25:10.485Z,15.04
2018-11-06T13:26:10.903Z,15.05
2018-11-06T13:27:10.212Z,15.07
2018-11-06T13:28:10.459Z,15.08
2018-11-06T13:29:10.198Z,15.02
2018-11-06T13:30:10.449Z,14.94
2018-11-06T13:31:10.436Z,14.98
2018-11-06T13:32:10.523Z,14.87